sensor_id;sensor_type;location;lat;lon;timestamp;pressure;altitude;pressure_sealevel;temperature;humidity
49216;BME280;45943;53.148;8.204;2023-05-23T00:01:47;101477.19;;;19.67;100.00
49216;BME280;45943;53.148;8.204;2023-05-23T00:04:13;101476.81;;;19.62;100.00
49216;BME280;45943;53.148;8.204;2023-05-23T00:06:42;101470.34;;;19.63;100.00
49216;BME280;45943;53.148;8.204;2023-05-23T00:09:12;101474.28;;;19.68;100.00
49216;BME280;45943;53.148;8.204;2023-05-23T00:11:39;101478.69;;;19.69;100.00
49216;BME280;45943;53.148;8.204;2023-05-23T00:14:10;101476.66;;;19.71;100.00
49216;BME280;45943;53.148;8.204;2023-05-23T00:16:39;101468.31;;;19.73;100.00
49216;BME280;45943;53.148;8.204;2023-05-23T00:19:06;101474.13;;;19.78;100.00
49216;BME280;45943;53.148;8.204;2023-05-23T00:21:32;101471.03;;;19.73;100.00
49216;BME280;45943;53.148;8.204;2023-05-23T00:23:59;101470.88;;;19.74;100.00
49216;BME280;45943;53.148;8.204;2023-05-23T00:26:27;101463.06;;;19.80;100.00
49216;BME280;45943;53.148;8.204;2023-05-23T00:28:56;101462.38;;;19.77;100.00
49216;BME280;45943;53.148;8.204;2023-05-23T00:31:23;101460.69;;;19.76;100.00
49216;BME280;45943;53.148;8.204;2023-05-23T00:33:49;101467.28;;;19.66;100.00
49216;BME280;45943;53.148;8.204;2023-05-23T00:36:15;101466.59;;;19.64;100.00
49216;BME280;45943;53.148;8.204;2023-05-23T00:38:42;101464.56;;;19.66;100.00
49216;BME280;45943;53.148;8.204;2023-05-23T00:41:10;101464.06;;;19.62;100.00
49216;BME280;45943;53.148;8.204;2023-05-23T00:43:37;101462.84;;;19.65;100.00
49216;BME280;45943;53.148;8.204;2023-05-23T00:46:03;101466.13;;;19.68;100.00
49216;BME280;45943;53.148;8.204;2023-05-23T00:48:29;101461.69;;;19.67;100.00
49216;BME280;45943;53.148;8.204;2023-05-23T00:50:55;101461.53;;;19.69;100.00
49216;BME280;45943;53.148;8.204;2023-05-23T00:53:21;101460.69;;;19.76;100.00
49216;BME280;45943;53.148;8.204;2023-05-23T00:55:48;101462.88;;;19.73;100.00
49216;BME280;45943;53.148;8.204;2023-05-23T00:58:15;101464.91;;;19.71;100.00
49216;BME280;45943;53.148;8.204;2023-05-23T01:00:42;101456.41;;;19.66;100.00
49216;BME280;45943;53.148;8.204;2023-05-23T01:03:09;101458.59;;;19.62;100.00
49216;BME280;45943;53.148;8.204;2023-05-23T01:05:43;101455.03;;;19.62;100.00
49216;BME280;45943;53.148;8.204;2023-05-23T01:08:09;101455.88;;;19.62;100.00
49216;BME280;45943;53.148;8.204;2023-05-23T01:10:35;101450.13;;;19.57;100.00
49216;BME280;45943;53.148;8.204;2023-05-23T01:13:08;101451.22;;;19.46;100.00
49216;BME280;45943;53.148;8.204;2023-05-23T01:15:42;101445.63;;;19.40;100.00
49216;BME280;45943;53.148;8.204;2023-05-23T01:18:17;101445.78;;;19.38;100.00
49216;BME280;45943;53.148;8.204;2023-05-23T01:20:53;101439.13;;;19.33;100.00
49216;BME280;45943;53.148;8.204;2023-05-23T01:29:00;101442.50;;;19.27;100.00
49216;BME280;45943;53.148;8.204;2023-05-23T01:31:38;101446.75;;;19.21;100.00
49216;BME280;45943;53.148;8.204;2023-05-23T01:34:09;101449.47;;;19.21;100.00
49216;BME280;45943;53.148;8.204;2023-05-23T01:36:39;101453.25;;;19.28;100.00
49216;BME280;45943;53.148;8.204;2023-05-23T01:39:06;101455.78;;;19.30;100.00
49216;BME280;45943;53.148;8.204;2023-05-23T01:41:33;101454.75;;;19.23;100.00
49216;BME280;45943;53.148;8.204;2023-05-23T01:43:59;101444.88;;;19.22;100.00
49216;BME280;45943;53.148;8.204;2023-05-23T01:46:26;101454.41;;;19.17;100.00
49216;BME280;45943;53.148;8.204;2023-05-23T01:48:53;101450.78;;;19.17;100.00
49216;BME280;45943;53.148;8.204;2023-05-23T01:51:21;101450.78;;;19.17;100.00
49216;BME280;45943;53.148;8.204;2023-05-23T01:53:48;101453.69;;;19.15;100.00
49216;BME280;45943;53.148;8.204;2023-05-23T01:56:15;101452.53;;;19.26;100.00
49216;BME280;45943;53.148;8.204;2023-05-23T01:58:41;101453.91;;;19.30;100.00
49216;BME280;45943;53.148;8.204;2023-05-23T02:01:08;101459.88;;;19.34;100.00
49216;BME280;45943;53.148;8.204;2023-05-23T02:03:34;101458.84;;;19.35;100.00
49216;BME280;45943;53.148;8.204;2023-05-23T02:06:00;101459.03;;;19.33;100.00
49216;BME280;45943;53.148;8.204;2023-05-23T02:08:26;101456.44;;;19.24;100.00
49216;BME280;45943;53.148;8.204;2023-05-23T02:10:52;101460.19;;;19.23;100.00
49216;BME280;45943;53.148;8.204;2023-05-23T02:13:18;101456.41;;;19.15;100.00
49216;BME280;45943;53.148;8.204;2023-05-23T02:15:44;101467.09;;;19.09;100.00
49216;BME280;45943;53.148;8.204;2023-05-23T02:18:10;101462.69;;;19.08;100.00
49216;BME280;45943;53.148;8.204;2023-05-23T02:20:37;101459.97;;;19.08;100.00
49216;BME280;45943;53.148;8.204;2023-05-23T02:23:04;101462.13;;;19.04;100.00
49216;BME280;45943;53.148;8.204;2023-05-23T02:25:31;101459.97;;;19.08;100.00
49216;BME280;45943;53.148;8.204;2023-05-23T02:27:57;101464.72;;;19.14;100.00
49216;BME280;45943;53.148;8.204;2023-05-23T02:30:23;101458.59;;;19.12;100.00
49216;BME280;45943;53.148;8.204;2023-05-23T02:32:49;101450.91;;;18.99;100.00
49216;BME280;45943;53.148;8.204;2023-05-23T02:35:16;101452.28;;;19.03;100.00
49216;BME280;45943;53.148;8.204;2023-05-23T02:37:42;101461.13;;;19.05;100.00
49216;BME280;45943;53.148;8.204;2023-05-23T02:40:08;101453.97;;;19.04;100.00
49216;BME280;45943;53.148;8.204;2023-05-23T02:42:34;101460.59;;;19.02;100.00
49216;BME280;45943;53.148;8.204;2023-05-23T02:45:00;101469.41;;;18.96;100.00
49216;BME280;45943;53.148;8.204;2023-05-23T02:47:26;101471.22;;;18.87;100.00
49216;BME280;45943;53.148;8.204;2023-05-23T02:49:52;101466.63;;;18.87;100.00
49216;BME280;45943;53.148;8.204;2023-05-23T02:52:18;101471.56;;;18.84;100.00
49216;BME280;45943;53.148;8.204;2023-05-23T02:54:44;101467.44;;;18.72;100.00
49216;BME280;45943;53.148;8.204;2023-05-23T02:57:10;101479.38;;;18.79;100.00
49216;BME280;45943;53.148;8.204;2023-05-23T02:59:36;101476.94;;;18.76;100.00
49216;BME280;45943;53.148;8.204;2023-05-23T03:02:02;101482.38;;;18.76;100.00
49216;BME280;45943;53.148;8.204;2023-05-23T03:04:28;101477.38;;;18.63;100.00
49216;BME280;45943;53.148;8.204;2023-05-23T03:06:54;101482.19;;;18.69;100.00
49216;BME280;45943;53.148;8.204;2023-05-23T03:09:20;101471.16;;;18.71;100.00
49216;BME280;45943;53.148;8.204;2023-05-23T03:11:46;101488.47;;;18.70;100.00
49216;BME280;45943;53.148;8.204;2023-05-23T03:14:12;101484.75;;;18.71;100.00
49216;BME280;45943;53.148;8.204;2023-05-23T03:16:38;101482.56;;;18.74;100.00
49216;BME280;45943;53.148;8.204;2023-05-23T03:19:04;101484.50;;;18.64;100.00
49216;BME280;45943;53.148;8.204;2023-05-23T03:21:31;101484.75;;;18.71;100.00
49216;BME280;45943;53.148;8.204;2023-05-23T03:23:57;101488.94;;;18.65;100.00
49216;BME280;45943;53.148;8.204;2023-05-23T03:26:23;101494.94;;;18.69;100.00
49216;BME280;45943;53.148;8.204;2023-05-23T03:28:49;101489.56;;;18.59;100.00
49216;BME280;45943;53.148;8.204;2023-05-23T03:31:16;101498.03;;;18.56;100.00
49216;BME280;45943;53.148;8.204;2023-05-23T03:33:42;101503.00;;;18.60;100.00
49216;BME280;45943;53.148;8.204;2023-05-23T03:36:08;101506.72;;;18.59;100.00
49216;BME280;45943;53.148;8.204;2023-05-23T03:38:34;101508.91;;;18.56;100.00
49216;BME280;45943;53.148;8.204;2023-05-23T03:40:59;101503.09;;;18.51;100.00
49216;BME280;45943;53.148;8.204;2023-05-23T03:43:25;101505.81;;;18.51;100.00
49216;BME280;45943;53.148;8.204;2023-05-23T03:45:51;101513.28;;;18.49;100.00
49216;BME280;45943;53.148;8.204;2023-05-23T03:48:17;101510.84;;;18.46;100.00
49216;BME280;45943;53.148;8.204;2023-05-23T03:50:43;101517.16;;;18.46;100.00
49216;BME280;45943;53.148;8.204;2023-05-23T03:53:09;101516.69;;;18.51;100.00
49216;BME280;45943;53.148;8.204;2023-05-23T03:55:35;101523.44;;;18.47;100.00
49216;BME280;45943;53.148;8.204;2023-05-23T03:58:01;101521.19;;;18.42;100.00
49216;BME280;45943;53.148;8.204;2023-05-23T04:00:27;101531.56;;;18.47;100.00
49216;BME280;45943;53.148;8.204;2023-05-23T04:02:53;101536.81;;;18.40;100.00
49216;BME280;45943;53.148;8.204;2023-05-23T04:05:20;101532.59;;;18.46;100.00
49216;BME280;45943;53.148;8.204;2023-05-23T04:07:46;101538.69;;;18.40;100.00
49216;BME280;45943;53.148;8.204;2023-05-23T04:10:12;101543.25;;;18.39;100.00
49216;BME280;45943;53.148;8.204;2023-05-23T04:12:38;101535.72;;;18.33;100.00
49216;BME280;45943;53.148;8.204;2023-05-23T04:15:06;101541.69;;;18.37;100.00
49216;BME280;45943;53.148;8.204;2023-05-23T04:17:32;101545.97;;;18.39;100.00
49216;BME280;45943;53.148;8.204;2023-05-23T04:19:59;101554.31;;;18.46;100.00
49216;BME280;45943;53.148;8.204;2023-05-23T04:22:25;101557.13;;;18.36;100.00
49216;BME280;45943;53.148;8.204;2023-05-23T04:24:51;101569.16;;;18.33;100.00
49216;BME280;45943;53.148;8.204;2023-05-23T04:27:17;101568.47;;;18.31;100.00
49216;BME280;45943;53.148;8.204;2023-05-23T04:29:44;101565.84;;;18.22;100.00
49216;BME280;45943;53.148;8.204;2023-05-23T04:32:11;101569.66;;;18.11;100.00
49216;BME280;45943;53.148;8.204;2023-05-23T04:34:37;101582.50;;;18.09;100.00
49216;BME280;45943;53.148;8.204;2023-05-23T04:37:05;101574.69;;;18.06;100.00
49216;BME280;45943;53.148;8.204;2023-05-23T04:39:31;101577.72;;;18.03;100.00
49216;BME280;45943;53.148;8.204;2023-05-23T04:41:57;101576.84;;;18.02;100.00
49216;BME280;45943;53.148;8.204;2023-05-23T04:44:24;101575.84;;;18.03;100.00
49216;BME280;45943;53.148;8.204;2023-05-23T04:46:51;101586.22;;;18.08;100.00
49216;BME280;45943;53.148;8.204;2023-05-23T04:49:17;101586.78;;;18.12;100.00
49216;BME280;45943;53.148;8.204;2023-05-23T04:51:45;101593.00;;;18.04;100.00
49216;BME280;45943;53.148;8.204;2023-05-23T04:54:11;101587.94;;;17.91;100.00
49216;BME280;45943;53.148;8.204;2023-05-23T04:56:37;101594.97;;;17.84;100.00
49216;BME280;45943;53.148;8.204;2023-05-23T04:59:03;101601.72;;;17.80;100.00
49216;BME280;45943;53.148;8.204;2023-05-23T05:01:29;101604.13;;;17.83;100.00
49216;BME280;45943;53.148;8.204;2023-05-23T05:03:55;101615.84;;;17.84;100.00
49216;BME280;45943;53.148;8.204;2023-05-23T05:06:22;101617.00;;;17.81;100.00
49216;BME280;45943;53.148;8.204;2023-05-23T05:08:48;101618.59;;;17.74;100.00
49216;BME280;45943;53.148;8.204;2023-05-23T05:11:14;101625.59;;;17.67;100.00
49216;BME280;45943;53.148;8.204;2023-05-23T05:13:40;101628.31;;;17.67;100.00
49216;BME280;45943;53.148;8.204;2023-05-23T05:16:06;101627.19;;;17.60;100.00
49216;BME280;45943;53.148;8.204;2023-05-23T05:18:32;101629.94;;;17.50;100.00
49216;BME280;45943;53.148;8.204;2023-05-23T05:20:58;101642.81;;;17.48;100.00
49216;BME280;45943;53.148;8.204;2023-05-23T05:23:24;101635.56;;;17.39;100.00
49216;BME280;45943;53.148;8.204;2023-05-23T05:25:53;101647.31;;;17.30;100.00
49216;BME280;45943;53.148;8.204;2023-05-23T05:28:20;101652.03;;;17.28;100.00
49216;BME280;45943;53.148;8.204;2023-05-23T05:30:47;101663.44;;;17.31;100.00
49216;BME280;45943;53.148;8.204;2023-05-23T05:33:19;101661.72;;;17.30;100.00
49216;BME280;45943;53.148;8.204;2023-05-23T05:35:48;101655.19;;;17.23;100.00
49216;BME280;45943;53.148;8.204;2023-05-23T05:38:16;101661.50;;;17.14;100.00
49216;BME280;45943;53.148;8.204;2023-05-23T05:40:42;101664.78;;;17.08;100.00
49216;BME280;45943;53.148;8.204;2023-05-23T05:43:08;101671.03;;;17.08;100.00
49216;BME280;45943;53.148;8.204;2023-05-23T05:45:35;101679.47;;;17.15;100.00
49216;BME280;45943;53.148;8.204;2023-05-23T05:48:01;101670.88;;;17.19;100.00
49216;BME280;45943;53.148;8.204;2023-05-23T05:50:27;101680.16;;;17.17;100.00
49216;BME280;45943;53.148;8.204;2023-05-23T05:52:53;101689.88;;;17.10;100.00
49216;BME280;45943;53.148;8.204;2023-05-23T05:55:19;101690.63;;;17.02;100.00
49216;BME280;45943;53.148;8.204;2023-05-23T05:57:45;101699.16;;;16.98;100.00
49216;BME280;45943;53.148;8.204;2023-05-23T06:00:12;101702.59;;;17.00;100.00
49216;BME280;45943;53.148;8.204;2023-05-23T06:02:40;101706.75;;;17.04;100.00
49216;BME280;45943;53.148;8.204;2023-05-23T06:05:12;101708.72;;;17.11;100.00
49216;BME280;45943;53.148;8.204;2023-05-23T06:07:41;101707.59;;;17.04;100.00
49216;BME280;45943;53.148;8.204;2023-05-23T06:10:08;101718.00;;;16.99;100.00
49216;BME280;45943;53.148;8.204;2023-05-23T06:12:37;101711.88;;;16.97;100.00
49216;BME280;45943;53.148;8.204;2023-05-23T06:15:03;101729.84;;;16.88;100.00
49216;BME280;45943;53.148;8.204;2023-05-23T06:17:30;101724.41;;;16.98;100.00
49216;BME280;45943;53.148;8.204;2023-05-23T06:19:56;101736.09;;;17.08;100.00
49216;BME280;45943;53.148;8.204;2023-05-23T06:22:22;101730.69;;;17.18;100.00
49216;BME280;45943;53.148;8.204;2023-05-23T06:24:48;101740.66;;;17.17;100.00
49216;BME280;45943;53.148;8.204;2023-05-23T06:27:14;101734.41;;;17.17;100.00
49216;BME280;45943;53.148;8.204;2023-05-23T06:29:40;101746.25;;;17.16;100.00
49216;BME280;45943;53.148;8.204;2023-05-23T06:32:06;101741.81;;;17.05;100.00
49216;BME280;45943;53.148;8.204;2023-05-23T06:34:32;101748.41;;;17.03;100.00
49216;BME280;45943;53.148;8.204;2023-05-23T06:36:58;101753.69;;;17.04;100.00
49216;BME280;45943;53.148;8.204;2023-05-23T06:39:24;101761.81;;;17.04;100.00
49216;BME280;45943;53.148;8.204;2023-05-23T06:41:50;101767.53;;;17.01;100.00
49216;BME280;45943;53.148;8.204;2023-05-23T06:44:16;101769.63;;;16.98;100.00
49216;BME280;45943;53.148;8.204;2023-05-23T06:46:44;101776.63;;;17.00;100.00
49216;BME280;45943;53.148;8.204;2023-05-23T06:49:10;101780.78;;;16.95;100.00
49216;BME280;45943;53.148;8.204;2023-05-23T06:51:36;101781.78;;;16.94;100.00
49216;BME280;45943;53.148;8.204;2023-05-23T06:54:02;101781.06;;;16.91;100.00
49216;BME280;45943;53.148;8.204;2023-05-23T06:56:28;101795.19;;;16.85;100.00
49216;BME280;45943;53.148;8.204;2023-05-23T06:58:54;101784.34;;;16.95;100.00
49216;BME280;45943;53.148;8.204;2023-05-23T07:01:20;101796.59;;;16.99;100.00
49216;BME280;45943;53.148;8.204;2023-05-23T07:03:46;101804.16;;;16.96;100.00
49216;BME280;45943;53.148;8.204;2023-05-23T07:06:12;101808.72;;;16.85;100.00
49216;BME280;45943;53.148;8.204;2023-05-23T07:08:38;101812.97;;;16.78;100.00
49216;BME280;45943;53.148;8.204;2023-05-23T07:11:04;101811.81;;;16.71;100.00
49216;BME280;45943;53.148;8.204;2023-05-23T07:13:31;101813.34;;;16.54;100.00
49216;BME280;45943;53.148;8.204;2023-05-23T07:15:57;101811.31;;;16.47;100.00
49216;BME280;45943;53.148;8.204;2023-05-23T07:18:23;101816.31;;;16.51;100.00
49216;BME280;45943;53.148;8.204;2023-05-23T07:20:49;101831.09;;;16.38;100.00
49216;BME280;45943;53.148;8.204;2023-05-23T07:23:15;101826.69;;;16.37;100.00
49216;BME280;45943;53.148;8.204;2023-05-23T07:25:41;101826.69;;;16.37;100.00
49216;BME280;45943;53.148;8.204;2023-05-23T07:28:08;101844.91;;;16.34;100.00
49216;BME280;45943;53.148;8.204;2023-05-23T07:30:35;101837.03;;;16.31;100.00
49216;BME280;45943;53.148;8.204;2023-05-23T07:33:01;101842.22;;;16.34;100.00
49216;BME280;45943;53.148;8.204;2023-05-23T07:35:27;101847.91;;;16.41;100.00
49216;BME280;45943;53.148;8.204;2023-05-23T07:37:53;101857.59;;;16.34;100.00
49216;BME280;45943;53.148;8.204;2023-05-23T07:40:23;101862.16;;;16.33;100.00
49216;BME280;45943;53.148;8.204;2023-05-23T07:42:49;101860.78;;;16.49;100.00
49216;BME280;45943;53.148;8.204;2023-05-23T07:45:15;101860.25;;;16.55;100.00
49216;BME280;45943;53.148;8.204;2023-05-23T07:47:41;101875.34;;;16.57;100.00
49216;BME280;45943;53.148;8.204;2023-05-23T07:50:07;101869.88;;;16.38;100.00
49216;BME280;45943;53.148;8.204;2023-05-23T07:52:33;101875.41;;;16.37;100.00
49216;BME280;45943;53.148;8.204;2023-05-23T07:54:59;101859.00;;;16.28;100.00
49216;BME280;45943;53.148;8.204;2023-05-23T07:57:25;101881.31;;;16.21;100.00
49216;BME280;45943;53.148;8.204;2023-05-23T07:59:52;101892.63;;;16.26;100.00
49216;BME280;45943;53.148;8.204;2023-05-23T08:02:19;101893.34;;;16.28;100.00
49216;BME280;45943;53.148;8.204;2023-05-23T08:04:45;101896.31;;;16.25;100.00
49216;BME280;45943;53.148;8.204;2023-05-23T08:07:12;101911.00;;;16.22;100.00
49216;BME280;45943;53.148;8.204;2023-05-23T08:09:38;101912.09;;;16.20;100.00
49216;BME280;45943;53.148;8.204;2023-05-23T08:12:05;101915.84;;;16.28;100.00
49216;BME280;45943;53.148;8.204;2023-05-23T08:14:32;101910.16;;;16.31;100.00
49216;BME280;45943;53.148;8.204;2023-05-23T08:16:58;101923.25;;;16.26;100.00
49216;BME280;45943;53.148;8.204;2023-05-23T08:19:24;101922.72;;;16.32;100.00
49216;BME280;45943;53.148;8.204;2023-05-23T08:21:50;101926.53;;;16.30;100.00
49216;BME280;45943;53.148;8.204;2023-05-23T08:24:18;101921.84;;;16.32;100.00
49216;BME280;45943;53.148;8.204;2023-05-23T08:26:44;101925.03;;;16.37;100.00
49216;BME280;45943;53.148;8.204;2023-05-23T08:29:11;101926.19;;;16.44;100.00
49216;BME280;45943;53.148;8.204;2023-05-23T08:31:37;101936.56;;;16.39;100.00
49216;BME280;45943;53.148;8.204;2023-05-23T08:34:03;101942.06;;;16.28;100.00
49216;BME280;45943;53.148;8.204;2023-05-23T08:36:29;101941.72;;;16.21;100.00
49216;BME280;45943;53.148;8.204;2023-05-23T08:38:58;101945.44;;;16.20;100.00
49216;BME280;45943;53.148;8.204;2023-05-23T08:41:24;101947.63;;;16.05;100.00
49216;BME280;45943;53.148;8.204;2023-05-23T08:43:53;101947.84;;;16.14;100.00
49216;BME280;45943;53.148;8.204;2023-05-23T08:46:20;101939.31;;;16.18;100.00
49216;BME280;45943;53.148;8.204;2023-05-23T08:48:50;101949.91;;;16.31;100.00
49216;BME280;45943;53.148;8.204;2023-05-23T08:51:24;101953.53;;;16.41;100.00
49216;BME280;45943;53.148;8.204;2023-05-23T08:53:51;101962.50;;;16.42;100.00
49216;BME280;45943;53.148;8.204;2023-05-23T08:56:18;101960.28;;;16.47;100.00
49216;BME280;45943;53.148;8.204;2023-05-23T08:58:45;101959.47;;;16.56;100.00
49216;BME280;45943;53.148;8.204;2023-05-23T09:01:15;101960.38;;;16.66;100.00
49216;BME280;45943;53.148;8.204;2023-05-23T09:03:44;101966.28;;;16.81;100.00
49216;BME280;45943;53.148;8.204;2023-05-23T09:06:11;101964.44;;;16.72;100.00
49216;BME280;45943;53.148;8.204;2023-05-23T09:08:37;101959.88;;;16.72;100.00
49216;BME280;45943;53.148;8.204;2023-05-23T09:11:04;101965.88;;;16.76;100.00
49216;BME280;45943;53.148;8.204;2023-05-23T09:13:31;101966.38;;;17.00;100.00
49216;BME280;45943;53.148;8.204;2023-05-23T09:18:25;101972.72;;;17.30;100.00
49216;BME280;45943;53.148;8.204;2023-05-23T09:20:51;101977.59;;;17.36;100.00
49216;BME280;45943;53.148;8.204;2023-05-23T09:23:18;101978.16;;;17.30;100.00
49216;BME280;45943;53.148;8.204;2023-05-23T09:25:47;101986.56;;;17.27;100.00
49216;BME280;45943;53.148;8.204;2023-05-23T09:28:13;101984.00;;;17.25;100.00
49216;BME280;45943;53.148;8.204;2023-05-23T09:30:40;101996.56;;;17.26;100.00
49216;BME280;45943;53.148;8.204;2023-05-23T09:33:06;101978.59;;;17.35;100.00
49216;BME280;45943;53.148;8.204;2023-05-23T09:35:32;101993.31;;;17.42;100.00
49216;BME280;45943;53.148;8.204;2023-05-23T09:37:58;101992.59;;;17.49;100.00
49216;BME280;45943;53.148;8.204;2023-05-23T09:40:28;102004.44;;;17.39;100.00
49216;BME280;45943;53.148;8.204;2023-05-23T09:43:00;101993.84;;;17.26;100.00
49216;BME280;45943;53.148;8.204;2023-05-23T09:45:28;102002.28;;;17.23;100.00
49216;BME280;45943;53.148;8.204;2023-05-23T09:47:55;102001.69;;;17.29;100.00
49216;BME280;45943;53.148;8.204;2023-05-23T09:50:22;102007.94;;;17.20;100.00
49216;BME280;45943;53.148;8.204;2023-05-23T09:52:48;102011.84;;;17.27;100.00
49216;BME280;45943;53.148;8.204;2023-05-23T09:55:15;102032.13;;;17.33;100.00
49216;BME280;45943;53.148;8.204;2023-05-23T09:57:42;102007.41;;;17.26;100.00
49216;BME280;45943;53.148;8.204;2023-05-23T10:00:09;102012.16;;;17.34;100.00
49216;BME280;45943;53.148;8.204;2023-05-23T10:05:34;102014.63;;;17.66;100.00
49216;BME280;45943;53.148;8.204;2023-05-23T10:08:10;102016.19;;;17.59;100.00
49216;BME280;45943;53.148;8.204;2023-05-23T10:13:53;102023.25;;;17.71;100.00
49216;BME280;45943;53.148;8.204;2023-05-23T10:19:00;102020.97;;;18.15;100.00
49216;BME280;45943;53.148;8.204;2023-05-23T10:21:34;102021.09;;;18.32;100.00
49216;BME280;45943;53.148;8.204;2023-05-23T10:24:09;102020.94;;;18.34;100.00
49216;BME280;45943;53.148;8.204;2023-05-23T10:26:36;102020.66;;;18.27;100.00
49216;BME280;45943;53.148;8.204;2023-05-23T10:29:02;102040.53;;;18.18;100.00
49216;BME280;45943;53.148;8.204;2023-05-23T10:31:29;102036.69;;;18.01;100.00
49216;BME280;45943;53.148;8.204;2023-05-23T10:34:01;102035.84;;;17.91;100.00
49216;BME280;45943;53.148;8.204;2023-05-23T10:36:39;102043.13;;;18.00;100.00
49216;BME280;45943;53.148;8.204;2023-05-23T10:39:15;102028.25;;;18.14;100.00
49216;BME280;45943;53.148;8.204;2023-05-23T10:41:50;102039.09;;;18.24;100.00
49216;BME280;45943;53.148;8.204;2023-05-23T10:44:29;102043.97;;;18.30;100.00
49216;BME280;45943;53.148;8.204;2023-05-23T10:46:56;102042.38;;;18.27;97.21
49216;BME280;45943;53.148;8.204;2023-05-23T10:49:39;102038.81;;;18.08;100.00
49216;BME280;45943;53.148;8.204;2023-05-23T10:52:07;102044.38;;;18.25;100.00
49216;BME280;45943;53.148;8.204;2023-05-23T10:54:34;102051.38;;;18.47;100.00
49216;BME280;45943;53.148;8.204;2023-05-23T10:57:02;102039.03;;;18.82;92.58
49216;BME280;45943;53.148;8.204;2023-05-23T10:59:29;102047.03;;;19.20;91.47
49216;BME280;45943;53.148;8.204;2023-05-23T11:01:55;102058.19;;;19.27;85.21
49216;BME280;45943;53.148;8.204;2023-05-23T11:04:25;102044.41;;;19.01;82.48
49216;BME280;45943;53.148;8.204;2023-05-23T11:06:52;102056.91;;;18.84;84.20
49216;BME280;45943;53.148;8.204;2023-05-23T11:09:19;102051.03;;;18.89;83.60
49216;BME280;45943;53.148;8.204;2023-05-23T11:14:19;102060.09;;;19.72;76.05
49216;BME280;45943;53.148;8.204;2023-05-23T11:19:37;102067.38;;;19.44;68.78
49216;BME280;45943;53.148;8.204;2023-05-23T11:22:07;102059.91;;;19.56;71.20
49216;BME280;45943;53.148;8.204;2023-05-23T11:24:50;102059.63;;;19.49;71.95
49216;BME280;45943;53.148;8.204;2023-05-23T11:27:27;102061.25;;;19.42;69.11
49216;BME280;45943;53.148;8.204;2023-05-23T11:32:32;102073.56;;;19.09;72.47
49216;BME280;45943;53.148;8.204;2023-05-23T11:34:59;102070.00;;;19.08;73.86
49216;BME280;45943;53.148;8.204;2023-05-23T11:37:27;102076.88;;;19.03;72.11
49216;BME280;45943;53.148;8.204;2023-05-23T11:39:53;102074.78;;;18.87;73.74
49216;BME280;45943;53.148;8.204;2023-05-23T11:42:19;102076.09;;;18.73;71.54
49216;BME280;45943;53.148;8.204;2023-05-23T11:44:49;102078.97;;;18.72;73.92
49216;BME280;45943;53.148;8.204;2023-05-23T11:47:16;102080.94;;;18.89;74.55
49216;BME280;45943;53.148;8.204;2023-05-23T11:49:43;102089.63;;;19.02;74.45
49216;BME280;45943;53.148;8.204;2023-05-23T11:52:11;102094.31;;;19.10;74.38
49216;BME280;45943;53.148;8.204;2023-05-23T11:54:40;102095.53;;;18.98;71.67
49216;BME280;45943;53.148;8.204;2023-05-23T11:57:08;102091.09;;;18.87;73.49
49216;BME280;45943;53.148;8.204;2023-05-23T11:59:35;102087.09;;;18.81;76.01
49216;BME280;45943;53.148;8.204;2023-05-23T12:02:02;102097.94;;;19.01;77.18
49216;BME280;45943;53.148;8.204;2023-05-23T12:04:28;102091.34;;;19.03;74.88
49216;BME280;45943;53.148;8.204;2023-05-23T12:06:54;102091.03;;;19.06;76.35
49216;BME280;45943;53.148;8.204;2023-05-23T12:09:20;102087.44;;;19.06;73.15
49216;BME280;45943;53.148;8.204;2023-05-23T12:11:47;102097.19;;;19.36;73.50
49216;BME280;45943;53.148;8.204;2023-05-23T12:14:15;102093.75;;;19.43;72.59
49216;BME280;45943;53.148;8.204;2023-05-23T12:16:42;102093.44;;;19.46;72.76
49216;BME280;45943;53.148;8.204;2023-05-23T12:19:11;102091.44;;;19.76;71.20
49216;BME280;45943;53.148;8.204;2023-05-23T12:21:44;102096.38;;;19.90;66.60
49216;BME280;45943;53.148;8.204;2023-05-23T12:24:18;102094.84;;;19.60;64.11
49216;BME280;45943;53.148;8.204;2023-05-23T12:26:52;102111.06;;;19.42;63.09
49216;BME280;45943;53.148;8.204;2023-05-23T12:29:30;102096.22;;;19.64;61.53
49216;BME280;45943;53.148;8.204;2023-05-23T12:31:57;102090.81;;;19.82;59.23
49216;BME280;45943;53.148;8.204;2023-05-23T12:34:25;102096.53;;;19.89;60.21
49216;BME280;45943;53.148;8.204;2023-05-23T12:36:54;102101.28;;;19.87;62.78
49216;BME280;45943;53.148;8.204;2023-05-23T12:39:25;102100.94;;;19.72;61.73
49216;BME280;45943;53.148;8.204;2023-05-23T12:41:53;102099.84;;;19.55;60.91
49216;BME280;45943;53.148;8.204;2023-05-23T12:44:28;102105.78;;;19.41;61.92
49216;BME280;45943;53.148;8.204;2023-05-23T12:46:56;102108.25;;;19.34;61.86
49216;BME280;45943;53.148;8.204;2023-05-23T12:49:22;102119.28;;;19.33;60.82
49216;BME280;45943;53.148;8.204;2023-05-23T12:51:48;102112.94;;;19.42;63.99
49216;BME280;45943;53.148;8.204;2023-05-23T12:54:14;102110.25;;;19.69;61.72
49216;BME280;45943;53.148;8.204;2023-05-23T12:56:40;102105.34;;;19.73;62.05
49216;BME280;45943;53.148;8.204;2023-05-23T12:59:06;102120.03;;;19.62;62.54
49216;BME280;45943;53.148;8.204;2023-05-23T13:01:33;102123.34;;;19.56;62.17
49216;BME280;45943;53.148;8.204;2023-05-23T13:03:59;102117.53;;;19.41;63.77
49216;BME280;45943;53.148;8.204;2023-05-23T13:06:26;102124.63;;;19.52;63.12